sensor_id;sensor_type;location;lat;lon;timestamp;P1;durP1;ratioP1;P2;durP2;ratioP2
35084;SDS011;21267;51.032;6.998;2023-06-26T00:01:38;9.63;;;8.60;;
35084;SDS011;21267;51.032;6.998;2023-06-26T00:04:06;8.52;;;7.72;;
35084;SDS011;21267;51.032;6.998;2023-06-26T00:06:34;9.13;;;8.23;;
35084;SDS011;21267;51.032;6.998;2023-06-26T00:09:01;9.88;;;8.13;;
35084;SDS011;21267;51.032;6.998;2023-06-26T00:11:28;9.32;;;8.43;;
35084;SDS011;21267;51.032;6.998;2023-06-26T00:14:00;9.77;;;8.27;;
35084;SDS011;21267;51.032;6.998;2023-06-26T00:16:27;8.93;;;8.02;;
35084;SDS011;21267;51.032;6.998;2023-06-26T00:18:55;9.23;;;8.30;;
35084;SDS011;21267;51.032;6.998;2023-06-26T00:21:21;9.30;;;8.20;;
35084;SDS011;21267;51.032;6.998;2023-06-26T00:23:48;9.33;;;7.37;;
35084;SDS011;21267;51.032;6.998;2023-06-26T00:26:16;9.20;;;8.38;;
35084;SDS011;21267;51.032;6.998;2023-06-26T00:31:10;8.48;;;7.68;;
35084;SDS011;21267;51.032;6.998;2023-06-26T00:33:37;10.95;;;8.00;;
35084;SDS011;21267;51.032;6.998;2023-06-26T00:36:04;9.07;;;7.57;;
35084;SDS011;21267;51.032;6.998;2023-06-26T00:38:37;8.70;;;7.90;;
35084;SDS011;21267;51.032;6.998;2023-06-26T00:41:04;9.75;;;7.35;;
35084;SDS011;21267;51.032;6.998;2023-06-26T00:43:31;8.13;;;7.43;;
35084;SDS011;21267;51.032;6.998;2023-06-26T00:45:58;8.43;;;7.63;;
35084;SDS011;21267;51.032;6.998;2023-06-26T00:48:25;9.18;;;8.32;;
35084;SDS011;21267;51.032;6.998;2023-06-26T00:50:52;8.88;;;7.60;;
35084;SDS011;21267;51.032;6.998;2023-06-26T00:53:22;8.20;;;7.40;;
35084;SDS011;21267;51.032;6.998;2023-06-26T00:55:51;9.05;;;8.15;;
35084;SDS011;21267;51.032;6.998;2023-06-26T00:58:18;8.40;;;7.55;;
35084;SDS011;21267;51.032;6.998;2023-06-26T01:00:48;8.68;;;7.80;;
35084;SDS011;21267;51.032;6.998;2023-06-26T01:03:16;9.25;;;8.40;;
35084;SDS011;21267;51.032;6.998;2023-06-26T01:05:44;9.30;;;7.93;;
35084;SDS011;21267;51.032;6.998;2023-06-26T01:08:12;8.63;;;7.78;;
35084;SDS011;21267;51.032;6.998;2023-06-26T01:10:40;8.73;;;7.85;;
35084;SDS011;21267;51.032;6.998;2023-06-26T01:13:10;9.02;;;8.23;;
35084;SDS011;21267;51.032;6.998;2023-06-26T01:15:39;8.60;;;7.80;;
35084;SDS011;21267;51.032;6.998;2023-06-26T01:18:07;8.80;;;8.00;;
35084;SDS011;21267;51.032;6.998;2023-06-26T01:20:35;8.57;;;7.88;;
35084;SDS011;21267;51.032;6.998;2023-06-26T01:28:43;8.60;;;7.80;;
35084;SDS011;21267;51.032;6.998;2023-06-26T01:31:12;8.95;;;8.05;;
35084;SDS011;21267;51.032;6.998;2023-06-26T01:33:40;9.20;;;8.35;;
35084;SDS011;21267;51.032;6.998;2023-06-26T01:36:08;9.95;;;9.02;;
35084;SDS011;21267;51.032;6.998;2023-06-26T01:38:35;11.25;;;10.27;;
35084;SDS011;21267;51.032;6.998;2023-06-26T01:41:02;10.68;;;8.55;;
35084;SDS011;21267;51.032;6.998;2023-06-26T01:46:24;9.90;;;8.93;;
35084;SDS011;21267;51.032;6.998;2023-06-26T01:51:42;9.40;;;8.50;;
35084;SDS011;21267;51.032;6.998;2023-06-26T01:54:17;9.82;;;8.90;;
35084;SDS011;21267;51.032;6.998;2023-06-26T01:56:49;10.75;;;9.73;;
35084;SDS011;21267;51.032;6.998;2023-06-26T01:59:20;10.15;;;9.15;;
35084;SDS011;21267;51.032;6.998;2023-06-26T02:01:48;10.07;;;9.18;;
35084;SDS011;21267;51.032;6.998;2023-06-26T02:04:15;11.00;;;9.38;;
35084;SDS011;21267;51.032;6.998;2023-06-26T02:06:43;10.30;;;9.15;;
35084;SDS011;21267;51.032;6.998;2023-06-26T02:09:10;9.85;;;8.95;;
35084;SDS011;21267;51.032;6.998;2023-06-26T02:11:37;10.13;;;9.13;;
35084;SDS011;21267;51.032;6.998;2023-06-26T02:14:04;9.73;;;8.80;;
35084;SDS011;21267;51.032;6.998;2023-06-26T02:16:31;9.63;;;8.73;;
35084;SDS011;21267;51.032;6.998;2023-06-26T02:18:59;9.40;;;8.15;;
35084;SDS011;21267;51.032;6.998;2023-06-26T02:23:53;9.43;;;8.63;;
35084;SDS011;21267;51.032;6.998;2023-06-26T02:26:24;10.25;;;9.07;;
35084;SDS011;21267;51.032;6.998;2023-06-26T02:28:51;10.15;;;9.25;;
35084;SDS011;21267;51.032;6.998;2023-06-26T02:31:18;9.05;;;8.25;;
35084;SDS011;21267;51.032;6.998;2023-06-26T02:33:45;10.95;;;8.43;;
35084;SDS011;21267;51.032;6.998;2023-06-26T02:36:12;9.32;;;8.52;;
35084;SDS011;21267;51.032;6.998;2023-06-26T02:38:39;9.13;;;8.30;;
35084;SDS011;21267;51.032;6.998;2023-06-26T02:41:06;9.73;;;8.67;;
35084;SDS011;21267;51.032;6.998;2023-06-26T02:43:33;9.50;;;8.60;;
35084;SDS011;21267;51.032;6.998;2023-06-26T02:46:01;12.32;;;11.13;;
35084;SDS011;21267;51.032;6.998;2023-06-26T02:48:27;10.68;;;9.48;;
35084;SDS011;21267;51.032;6.998;2023-06-26T02:53:22;10.10;;;9.23;;
35084;SDS011;21267;51.032;6.998;2023-06-26T02:55:49;9.73;;;8.80;;
35084;SDS011;21267;51.032;6.998;2023-06-26T03:00:44;11.48;;;8.63;;
35084;SDS011;21267;51.032;6.998;2023-06-26T03:03:11;11.88;;;9.65;;
35084;SDS011;21267;51.032;6.998;2023-06-26T03:05:42;9.73;;;8.75;;
35084;SDS011;21267;51.032;6.998;2023-06-26T03:08:09;10.57;;;9.57;;
35084;SDS011;21267;51.032;6.998;2023-06-26T03:10:36;10.38;;;9.13;;
35084;SDS011;21267;51.032;6.998;2023-06-26T03:13:03;9.55;;;8.55;;
35084;SDS011;21267;51.032;6.998;2023-06-26T03:15:30;10.10;;;9.10;;
35084;SDS011;21267;51.032;6.998;2023-06-26T03:17:58;10.75;;;9.02;;
35084;SDS011;21267;51.032;6.998;2023-06-26T03:20:25;9.23;;;8.32;;
35084;SDS011;21267;51.032;6.998;2023-06-26T03:22:52;12.27;;;8.98;;
35084;SDS011;21267;51.032;6.998;2023-06-26T03:25:19;9.80;;;8.82;;
35084;SDS011;21267;51.032;6.998;2023-06-26T03:27:46;9.50;;;8.50;;
35084;SDS011;21267;51.032;6.998;2023-06-26T03:32:40;10.43;;;8.90;;
35084;SDS011;21267;51.032;6.998;2023-06-26T03:35:08;10.07;;;9.02;;
35084;SDS011;21267;51.032;6.998;2023-06-26T03:37:36;9.48;;;8.52;;
35084;SDS011;21267;51.032;6.998;2023-06-26T03:40:03;11.23;;;9.27;;
35084;SDS011;21267;51.032;6.998;2023-06-26T03:42:31;9.27;;;8.20;;
35084;SDS011;21267;51.032;6.998;2023-06-26T03:47:25;7.35;;;6.47;;
35084;SDS011;21267;51.032;6.998;2023-06-26T03:49:52;8.55;;;7.75;;
35084;SDS011;21267;51.032;6.998;2023-06-26T03:52:20;6.75;;;6.10;;
35084;SDS011;21267;51.032;6.998;2023-06-26T03:54:47;6.30;;;4.93;;
35084;SDS011;21267;51.032;6.998;2023-06-26T03:57:16;9.25;;;5.88;;
35084;SDS011;21267;51.032;6.998;2023-06-26T03:59:43;7.45;;;6.75;;
35084;SDS011;21267;51.032;6.998;2023-06-26T04:02:10;7.22;;;6.15;;
35084;SDS011;21267;51.032;6.998;2023-06-26T04:04:39;7.60;;;6.10;;
35084;SDS011;21267;51.032;6.998;2023-06-26T04:07:06;7.65;;;6.45;;
35084;SDS011;21267;51.032;6.998;2023-06-26T04:09:33;8.77;;;6.43;;
35084;SDS011;21267;51.032;6.998;2023-06-26T04:12:00;7.33;;;5.80;;
35084;SDS011;21267;51.032;6.998;2023-06-26T04:14:27;7.45;;;6.65;;
35084;SDS011;21267;51.032;6.998;2023-06-26T04:16:54;6.40;;;5.73;;
35084;SDS011;21267;51.032;6.998;2023-06-26T04:19:21;7.20;;;5.78;;
35084;SDS011;21267;51.032;6.998;2023-06-26T04:21:48;6.55;;;5.85;;
35084;SDS011;21267;51.032;6.998;2023-06-26T04:24:15;6.70;;;6.10;;
35084;SDS011;21267;51.032;6.998;2023-06-26T04:26:42;7.97;;;5.93;;
35084;SDS011;21267;51.032;6.998;2023-06-26T04:29:12;7.05;;;6.45;;
35084;SDS011;21267;51.032;6.998;2023-06-26T04:31:39;7.45;;;6.18;;
35084;SDS011;21267;51.032;6.998;2023-06-26T04:34:06;9.13;;;6.00;;
35084;SDS011;21267;51.032;6.998;2023-06-26T04:36:33;9.03;;;6.67;;
35084;SDS011;21267;51.032;6.998;2023-06-26T04:39:05;10.20;;;7.05;;
35084;SDS011;21267;51.032;6.998;2023-06-26T04:41:33;7.65;;;6.43;;
35084;SDS011;21267;51.032;6.998;2023-06-26T04:43:59;10.60;;;6.97;;
35084;SDS011;21267;51.032;6.998;2023-06-26T04:46:29;7.18;;;6.43;;
35084;SDS011;21267;51.032;6.998;2023-06-26T04:48:56;7.40;;;6.65;;
35084;SDS011;21267;51.032;6.998;2023-06-26T04:51:25;10.73;;;6.47;;
35084;SDS011;21267;51.032;6.998;2023-06-26T04:56:39;10.82;;;8.63;;
35084;SDS011;21267;51.032;6.998;2023-06-26T04:59:13;10.00;;;6.80;;
35084;SDS011;21267;51.032;6.998;2023-06-26T05:01:41;7.60;;;6.90;;
35084;SDS011;21267;51.032;6.998;2023-06-26T05:04:08;7.40;;;6.50;;
35084;SDS011;21267;51.032;6.998;2023-06-26T05:06:35;9.02;;;6.68;;
35084;SDS011;21267;51.032;6.998;2023-06-26T05:09:02;7.75;;;6.45;;
35084;SDS011;21267;51.032;6.998;2023-06-26T05:11:29;7.22;;;6.18;;
35084;SDS011;21267;51.032;6.998;2023-06-26T05:13:56;7.72;;;5.63;;
35084;SDS011;21267;51.032;6.998;2023-06-26T05:16:23;7.03;;;5.17;;
35084;SDS011;21267;51.032;6.998;2023-06-26T05:18:50;6.53;;;5.82;;
35084;SDS011;21267;51.032;6.998;2023-06-26T05:21:17;6.57;;;4.72;;
35084;SDS011;21267;51.032;6.998;2023-06-26T05:23:44;10.23;;;6.38;;
35084;SDS011;21267;51.032;6.998;2023-06-26T05:26:13;6.50;;;5.05;;
35084;SDS011;21267;51.032;6.998;2023-06-26T05:28:41;9.05;;;5.22;;
35084;SDS011;21267;51.032;6.998;2023-06-26T05:31:11;8.48;;;5.35;;
35084;SDS011;21267;51.032;6.998;2023-06-26T05:33:38;6.40;;;4.25;;
35084;SDS011;21267;51.032;6.998;2023-06-26T05:36:09;7.30;;;5.82;;
35084;SDS011;21267;51.032;6.998;2023-06-26T05:38:36;8.10;;;4.15;;
35084;SDS011;21267;51.032;6.998;2023-06-26T05:43:31;6.00;;;4.88;;
35084;SDS011;21267;51.032;6.998;2023-06-26T05:46:04;7.53;;;5.80;;
35084;SDS011;21267;51.032;6.998;2023-06-26T05:48:31;7.95;;;4.88;;
35084;SDS011;21267;51.032;6.998;2023-06-26T05:51:03;8.20;;;5.32;;
35084;SDS011;21267;51.032;6.998;2023-06-26T05:53:30;8.15;;;5.57;;
35084;SDS011;21267;51.032;6.998;2023-06-26T05:55:58;7.05;;;5.25;;
35084;SDS011;21267;51.032;6.998;2023-06-26T05:58:28;5.47;;;4.65;;
35084;SDS011;21267;51.032;6.998;2023-06-26T06:00:56;9.68;;;5.22;;
35084;SDS011;21267;51.032;6.998;2023-06-26T06:03:26;7.72;;;5.55;;
35084;SDS011;21267;51.032;6.998;2023-06-26T06:05:53;7.20;;;5.40;;
35084;SDS011;21267;51.032;6.998;2023-06-26T06:08:20;7.75;;;5.13;;
35084;SDS011;21267;51.032;6.998;2023-06-26T06:10:47;11.10;;;5.53;;
35084;SDS011;21267;51.032;6.998;2023-06-26T06:15:41;7.28;;;4.75;;
35084;SDS011;21267;51.032;6.998;2023-06-26T06:18:10;7.53;;;4.32;;
35084;SDS011;21267;51.032;6.998;2023-06-26T06:20:37;7.00;;;5.22;;
35084;SDS011;21267;51.032;6.998;2023-06-26T06:23:04;5.90;;;3.40;;
35084;SDS011;21267;51.032;6.998;2023-06-26T06:25:32;8.30;;;5.47;;
35084;SDS011;21267;51.032;6.998;2023-06-26T06:27:59;7.85;;;5.20;;
35084;SDS011;21267;51.032;6.998;2023-06-26T06:33:38;8.60;;;5.20;;
35084;SDS011;21267;51.032;6.998;2023-06-26T06:36:05;7.40;;;5.57;;
35084;SDS011;21267;51.032;6.998;2023-06-26T06:38:32;7.88;;;3.75;;
35084;SDS011;21267;51.032;6.998;2023-06-26T06:40:59;9.27;;;5.78;;
35084;SDS011;21267;51.032;6.998;2023-06-26T06:43:27;9.07;;;4.22;;
35084;SDS011;21267;51.032;6.998;2023-06-26T06:45:54;7.95;;;4.68;;
35084;SDS011;21267;51.032;6.998;2023-06-26T06:48:21;8.25;;;5.90;;
35084;SDS011;21267;51.032;6.998;2023-06-26T06:50:48;6.15;;;4.05;;
35084;SDS011;21267;51.032;6.998;2023-06-26T06:53:15;12.25;;;5.28;;
35084;SDS011;21267;51.032;6.998;2023-06-26T06:55:43;7.20;;;4.20;;
35084;SDS011;21267;51.032;6.998;2023-06-26T06:58:09;7.90;;;4.17;;
35084;SDS011;21267;51.032;6.998;2023-06-26T07:00:36;7.20;;;5.03;;
35084;SDS011;21267;51.032;6.998;2023-06-26T07:03:03;6.18;;;4.82;;
35084;SDS011;21267;51.032;6.998;2023-06-26T07:05:30;7.13;;;5.25;;
35084;SDS011;21267;51.032;6.998;2023-06-26T07:07:57;9.75;;;5.53;;
35084;SDS011;21267;51.032;6.998;2023-06-26T07:10:28;5.80;;;4.15;;
35084;SDS011;21267;51.032;6.998;2023-06-26T07:12:54;8.48;;;5.38;;
35084;SDS011;21267;51.032;6.998;2023-06-26T07:15:24;8.10;;;4.93;;
35084;SDS011;21267;51.032;6.998;2023-06-26T07:17:54;5.85;;;3.95;;
35084;SDS011;21267;51.032;6.998;2023-06-26T07:20:21;9.98;;;4.70;;
35084;SDS011;21267;51.032;6.998;2023-06-26T07:22:48;5.50;;;4.23;;
35084;SDS011;21267;51.032;6.998;2023-06-26T07:25:19;8.63;;;5.50;;
35084;SDS011;21267;51.032;6.998;2023-06-26T07:27:46;9.38;;;5.00;;
35084;SDS011;21267;51.032;6.998;2023-06-26T07:30:13;11.27;;;5.25;;
35084;SDS011;21267;51.032;6.998;2023-06-26T07:32:40;13.13;;;4.73;;
35084;SDS011;21267;51.032;6.998;2023-06-26T07:35:08;10.48;;;6.00;;
35084;SDS011;21267;51.032;6.998;2023-06-26T07:37:35;13.88;;;6.53;;
35084;SDS011;21267;51.032;6.998;2023-06-26T07:40:02;8.17;;;5.37;;
35084;SDS011;21267;51.032;6.998;2023-06-26T07:42:30;7.85;;;5.53;;
35084;SDS011;21267;51.032;6.998;2023-06-26T07:44:57;8.63;;;4.90;;
35084;SDS011;21267;51.032;6.998;2023-06-26T07:47:23;7.87;;;4.50;;
35084;SDS011;21267;51.032;6.998;2023-06-26T07:49:51;10.75;;;5.97;;
35084;SDS011;21267;51.032;6.998;2023-06-26T07:52:18;8.00;;;5.68;;
35084;SDS011;21267;51.032;6.998;2023-06-26T07:54:46;10.27;;;6.18;;
35084;SDS011;21267;51.032;6.998;2023-06-26T07:57:13;8.10;;;5.85;;
35084;SDS011;21267;51.032;6.998;2023-06-26T07:59:40;8.70;;;5.67;;
35084;SDS011;21267;51.032;6.998;2023-06-26T08:02:07;8.30;;;5.35;;
35084;SDS011;21267;51.032;6.998;2023-06-26T08:04:34;7.20;;;4.90;;
35084;SDS011;21267;51.032;6.998;2023-06-26T08:07:01;9.90;;;6.10;;
35084;SDS011;21267;51.032;6.998;2023-06-26T08:09:30;8.20;;;5.50;;
35084;SDS011;21267;51.032;6.998;2023-06-26T08:11:58;8.05;;;5.00;;
35084;SDS011;21267;51.032;6.998;2023-06-26T08:16:52;5.95;;;3.30;;
35084;SDS011;21267;51.032;6.998;2023-06-26T08:21:47;9.27;;;5.63;;
35084;SDS011;21267;51.032;6.998;2023-06-26T08:24:17;8.32;;;4.88;;
35084;SDS011;21267;51.032;6.998;2023-06-26T08:26:46;8.90;;;5.22;;
35084;SDS011;21267;51.032;6.998;2023-06-26T08:29:13;14.00;;;4.65;;
35084;SDS011;21267;51.032;6.998;2023-06-26T08:31:41;7.00;;;4.97;;
35084;SDS011;21267;51.032;6.998;2023-06-26T08:34:09;8.82;;;5.35;;
35084;SDS011;21267;51.032;6.998;2023-06-26T08:36:36;7.55;;;4.18;;
35084;SDS011;21267;51.032;6.998;2023-06-26T08:39:11;9.27;;;6.18;;
35084;SDS011;21267;51.032;6.998;2023-06-26T08:41:38;10.27;;;5.68;;
35084;SDS011;21267;51.032;6.998;2023-06-26T08:44:08;11.73;;;5.68;;
35084;SDS011;21267;51.032;6.998;2023-06-26T08:46:35;10.30;;;5.53;;
35084;SDS011;21267;51.032;6.998;2023-06-26T08:49:20;8.50;;;4.75;;
35084;SDS011;21267;51.032;6.998;2023-06-26T08:51:52;7.78;;;5.70;;
35084;SDS011;21267;51.032;6.998;2023-06-26T08:54:30;11.07;;;4.68;;
35084;SDS011;21267;51.032;6.998;2023-06-26T08:57:03;6.68;;;4.32;;
35084;SDS011;21267;51.032;6.998;2023-06-26T08:59:31;8.50;;;4.78;;
35084;SDS011;21267;51.032;6.998;2023-06-26T09:01:58;10.45;;;5.03;;
35084;SDS011;21267;51.032;6.998;2023-06-26T09:04:25;10.90;;;4.47;;
35084;SDS011;21267;51.032;6.998;2023-06-26T09:06:53;6.45;;;3.35;;
35084;SDS011;21267;51.032;6.998;2023-06-26T09:09:20;6.40;;;3.58;;
35084;SDS011;21267;51.032;6.998;2023-06-26T09:11:47;10.10;;;4.88;;
35084;SDS011;21267;51.032;6.998;2023-06-26T09:14:14;10.00;;;4.13;;
35084;SDS011;21267;51.032;6.998;2023-06-26T09:16:41;11.88;;;5.00;;
35084;SDS011;21267;51.032;6.998;2023-06-26T09:19:12;9.63;;;5.13;;
35084;SDS011;21267;51.032;6.998;2023-06-26T09:21:39;9.02;;;4.70;;
35084;SDS011;21267;51.032;6.998;2023-06-26T09:24:08;11.18;;;5.63;;
35084;SDS011;21267;51.032;6.998;2023-06-26T09:26:38;9.68;;;3.85;;
35084;SDS011;21267;51.032;6.998;2023-06-26T09:29:09;28.90;;;9.32;;
35084;SDS011;21267;51.032;6.998;2023-06-26T09:34:08;8.95;;;4.03;;
35084;SDS011;21267;51.032;6.998;2023-06-26T09:39:06;6.85;;;3.47;;
35084;SDS011;21267;51.032;6.998;2023-06-26T09:41:40;5.65;;;3.55;;
35084;SDS011;21267;51.032;6.998;2023-06-26T09:44:10;14.40;;;4.10;;
35084;SDS011;21267;51.032;6.998;2023-06-26T09:46:38;7.32;;;4.82;;
35084;SDS011;21267;51.032;6.998;2023-06-26T09:49:06;10.40;;;4.30;;
35084;SDS011;21267;51.032;6.998;2023-06-26T09:51:35;17.95;;;5.82;;
35084;SDS011;21267;51.032;6.998;2023-06-26T09:54:03;5.80;;;3.78;;
35084;SDS011;21267;51.032;6.998;2023-06-26T09:56:31;5.07;;;2.78;;
35084;SDS011;21267;51.032;6.998;2023-06-26T09:59:00;15.27;;;4.70;;
35084;SDS011;21267;51.032;6.998;2023-06-26T10:01:28;11.25;;;3.70;;
35084;SDS011;21267;51.032;6.998;2023-06-26T10:03:56;7.60;;;3.15;;
35084;SDS011;21267;51.032;6.998;2023-06-26T10:06:30;8.77;;;3.90;;
35084;SDS011;21267;51.032;6.998;2023-06-26T10:09:00;5.93;;;3.28;;
35084;SDS011;21267;51.032;6.998;2023-06-26T10:11:31;10.68;;;4.15;;
35084;SDS011;21267;51.032;6.998;2023-06-26T10:14:04;7.57;;;4.82;;
35084;SDS011;21267;51.032;6.998;2023-06-26T10:16:44;9.95;;;4.90;;
35084;SDS011;21267;51.032;6.998;2023-06-26T10:19:13;8.73;;;4.10;;
35084;SDS011;21267;51.032;6.998;2023-06-26T10:21:42;4.30;;;2.70;;
35084;SDS011;21267;51.032;6.998;2023-06-26T10:24:09;12.13;;;4.50;;
35084;SDS011;21267;51.032;6.998;2023-06-26T10:26:41;13.93;;;4.82;;
35084;SDS011;21267;51.032;6.998;2023-06-26T10:29:10;10.77;;;3.72;;
35084;SDS011;21267;51.032;6.998;2023-06-26T10:31:39;8.38;;;3.40;;
35084;SDS011;21267;51.032;6.998;2023-06-26T10:34:08;5.70;;;3.13;;
35084;SDS011;21267;51.032;6.998;2023-06-26T10:36:35;7.85;;;3.10;;
35084;SDS011;21267;51.032;6.998;2023-06-26T10:39:03;8.13;;;2.90;;
35084;SDS011;21267;51.032;6.998;2023-06-26T10:41:41;5.95;;;2.22;;
35084;SDS011;21267;51.032;6.998;2023-06-26T10:44:29;4.97;;;2.50;;
35084;SDS011;21267;51.032;6.998;2023-06-26T10:47:08;4.82;;;1.88;;
35084;SDS011;21267;51.032;6.998;2023-06-26T10:49:54;6.38;;;2.30;;
35084;SDS011;21267;51.032;6.998;2023-06-26T10:52:37;4.95;;;2.63;;
35084;SDS011;21267;51.032;6.998;2023-06-26T10:55:05;5.88;;;2.25;;
35084;SDS011;21267;51.032;6.998;2023-06-26T10:57:36;8.15;;;2.90;;
35084;SDS011;21267;51.032;6.998;2023-06-26T11:00:08;4.57;;;2.13;;
35084;SDS011;21267;51.032;6.998;2023-06-26T11:02:48;9.70;;;3.42;;
35084;SDS011;21267;51.032;6.998;2023-06-26T11:05:26;7.30;;;2.63;;
35084;SDS011;21267;51.032;6.998;2023-06-26T11:10:47;6.82;;;2.58;;
35084;SDS011;21267;51.032;6.998;2023-06-26T11:13:16;6.45;;;1.70;;
35084;SDS011;21267;51.032;6.998;2023-06-26T11:15:49;4.15;;;1.80;;
35084;SDS011;21267;51.032;6.998;2023-06-26T11:18:17;6.90;;;2.08;;
35084;SDS011;21267;51.032;6.998;2023-06-26T11:20:44;5.38;;;1.88;;
35084;SDS011;21267;51.032;6.998;2023-06-26T11:23:10;2.88;;;1.58;;
35084;SDS011;21267;51.032;6.998;2023-06-26T11:25:38;3.35;;;1.90;;
35084;SDS011;21267;51.032;6.998;2023-06-26T11:28:05;3.33;;;1.42;;
35084;SDS011;21267;51.032;6.998;2023-06-26T11:30:32;6.28;;;2.75;;
35084;SDS011;21267;51.032;6.998;2023-06-26T11:33:04;6.57;;;2.53;;
35084;SDS011;21267;51.032;6.998;2023-06-26T11:35:35;8.30;;;2.25;;
35084;SDS011;21267;51.032;6.998;2023-06-26T11:38:03;3.90;;;1.92;;
35084;SDS011;21267;51.032;6.998;2023-06-26T11:40:35;4.53;;;2.13;;
35084;SDS011;21267;51.032;6.998;2023-06-26T11:43:03;4.47;;;1.63;;
35084;SDS011;21267;51.032;6.998;2023-06-26T11:45:31;3.00;;;1.30;;
35084;SDS011;21267;51.032;6.998;2023-06-26T11:47:59;1.35;;;0.70;;
35084;SDS011;21267;51.032;6.998;2023-06-26T11:50:28;3.70;;;1.52;;
35084;SDS011;21267;51.032;6.998;2023-06-26T11:52:58;2.85;;;1.33;;
35084;SDS011;21267;51.032;6.998;2023-06-26T11:55:25;6.00;;;2.25;;
35084;SDS011;21267;51.032;6.998;2023-06-26T11:57:53;6.60;;;2.17;;
35084;SDS011;21267;51.032;6.998;2023-06-26T12:00:21;5.55;;;1.70;;
35084;SDS011;21267;51.032;6.998;2023-06-26T12:02:49;2.83;;;1.60;;
35084;SDS011;21267;51.032;6.998;2023-06-26T12:05:18;3.97;;;2.03;;
35084;SDS011;21267;51.032;6.998;2023-06-26T12:07:46;2.67;;;1.33;;
35084;SDS011;21267;51.032;6.998;2023-06-26T12:10:14;3.42;;;1.75;;
35084;SDS011;21267;51.032;6.998;2023-06-26T12:12:41;6.43;;;1.70;;
35084;SDS011;21267;51.032;6.998;2023-06-26T12:15:10;4.15;;;1.45;;
35084;SDS011;21267;51.032;6.998;2023-06-26T12:17:41;2.25;;;1.13;;
35084;SDS011;21267;51.032;6.998;2023-06-26T12:20:20;6.95;;;1.90;;
35084;SDS011;21267;51.032;6.998;2023-06-26T12:22:52;4.22;;;1.30;;
35084;SDS011;21267;51.032;6.998;2023-06-26T12:27:49;4.80;;;1.88;;
35084;SDS011;21267;51.032;6.998;2023-06-26T12:30:16;6.13;;;1.70;;
35084;SDS011;21267;51.032;6.998;2023-06-26T12:32:44;3.90;;;1.63;;
35084;SDS011;21267;51.032;6.998;2023-06-26T12:35:12;7.70;;;2.00;;
35084;SDS011;21267;51.032;6.998;2023-06-26T12:37:39;5.35;;;1.83;;
35084;SDS011;21267;51.032;6.998;2023-06-26T12:40:18;3.42;;;1.58;;
35084;SDS011;21267;51.032;6.998;2023-06-26T12:45:13;4.40;;;1.45;;
35084;SDS011;21267;51.032;6.998;2023-06-26T12:47:47;7.10;;;1.27;;
35084;SDS011;21267;51.032;6.998;2023-06-26T12:50:15;5.57;;;1.25;;
35084;SDS011;21267;51.032;6.998;2023-06-26T12:52:43;5.47;;;1.27;;
35084;SDS011;21267;51.032;6.998;2023-06-26T12:55:10;4.68;;;1.33;;
35084;SDS011;21267;51.032;6.998;2023-06-26T12:57:37;2.75;;;1.48;;
35084;SDS011;21267;51.032;6.998;2023-06-26T13:00:04;2.83;;;1.40;;
35084;SDS011;21267;51.032;6.998;2023-06-26T13:02:36;4.63;;;1.25;;
35084;SDS011;21267;51.032;6.998;2023-06-26T13:05:04;37.42;;;8.15;;
35084;SDS011;21267;51.032;6.998;2023-06-26T13:07:31;49.22;;;8.82;;
35084;SDS011;21267;51.032;6.998;2023-06-26T13:09:58;26.00;;;5.88;;
35084;SDS011;21267;51.032;6.998;2023-06-26T13:12:25;1.80;;;0.73;;
35084;SDS011;21267;51.032;6.998;2023-06-26T13:14:52;4.43;;;1.35;;
35084;SDS011;21267;51.032;6.998;2023-06-26T13:19:46;3.75;;;1.35;;
35084;SDS011;21267;51.032;6.998;2023-06-26T13:24:40;2.85;;;0.80;;
35084;SDS011;21267;51.032;6.998;2023-06-26T13:27:07;3.78;;;1.10;;
35084;SDS011;21267;51.032;6.998;2023-06-26T13:29:34;3.95;;;1.60;;
35084;SDS011;21267;51.032;6.998;2023-06-26T13:32:01;3.75;;;1.27;;
35084;SDS011;21267;51.032;6.998;2023-06-26T13:36:56;4.30;;;1.23;;
35084;SDS011;21267;51.032;6.998;2023-06-26T13:39:23;15.50;;;3.30;;
35084;SDS011;21267;51.032;6.998;2023-06-26T13:41:50;2.17;;;1.05;;
35084;SDS011;21267;51.032;6.998;2023-06-26T13:44:16;3.67;;;0.80;;
35084;SDS011;21267;51.032;6.998;2023-06-26T13:47:03;1.27;;;0.47;;
35084;SDS011;21267;51.032;6.998;2023-06-26T13:49:32;5.80;;;1.50;;
35084;SDS011;21267;51.032;6.998;2023-06-26T13:51:59;2.63;;;1.23;;
35084;SDS011;21267;51.032;6.998;2023-06-26T13:54:25;1.35;;;0.50;;
35084;SDS011;21267;51.032;6.998;2023-06-26T13:56:52;7.88;;;1.30;;
35084;SDS011;21267;51.032;6.998;2023-06-26T13:59:24;16.35;;;6.03;;
35084;SDS011;21267;51.032;6.998;2023-06-26T14:01:52;7.75;;;4.20;;
35084;SDS011;21267;51.032;6.998;2023-06-26T14:04:19;2.70;;;1.25;;
35084;SDS011;21267;51.032;6.998;2023-06-26T14:06:47;98.82;;;18.98;;
35084;SDS011;21267;51.032;6.998;2023-06-26T14:09:15;13.57;;;2.38;;
35084;SDS011;21267;51.032;6.998;2023-06-26T14:11:43;2.53;;;1.20;;
35084;SDS011;21267;51.032;6.998;2023-06-26T14:14:10;4.32;;;1.30;;
35084;SDS011;21267;51.032;6.998;2023-06-26T14:16:37;1.67;;;1.10;;
35084;SDS011;21267;51.032;6.998;2023-06-26T14:19:06;1.67;;;0.55;;
35084;SDS011;21267;51.032;6.998;2023-06-26T14:21:33;3.22;;;1.50;;
35084;SDS011;21267;51.032;6.998;2023-06-26T14:24:01;3.13;;;1.20;;
35084;SDS011;21267;51.032;6.998;2023-06-26T14:26:29;2.35;;;0.80;;
35084;SDS011;21267;51.032;6.998;2023-06-26T14:28:56;14.90;;;1.75;;
35084;SDS011;21267;51.032;6.998;2023-06-26T14:31:23;2.97;;;1.30;;
35084;SDS011;21267;51.032;6.998;2023-06-26T14:33:51;4.68;;;1.50;;
35084;SDS011;21267;51.032;6.998;2023-06-26T14:36:18;4.75;;;1.77;;
35084;SDS011;21267;51.032;6.998;2023-06-26T14:38:45;3.80;;;1.48;;
35084;SDS011;21267;51.032;6.998;2023-06-26T14:41:13;1.88;;;1.40;;
35084;SDS011;21267;51.032;6.998;2023-06-26T14:43:42;3.45;;;1.17;;
35084;SDS011;21267;51.032;6.998;2023-06-26T14:46:12;1.50;;;1.05;;
35084;SDS011;21267;51.032;6.998;2023-06-26T14:48:39;4.97;;;2.10;;
35084;SDS011;21267;51.032;6.998;2023-06-26T14:51:06;14.25;;;2.13;;
35084;SDS011;21267;51.032;6.998;2023-06-26T14:53:33;3.50;;;1.05;;
35084;SDS011;21267;51.032;6.998;2023-06-26T14:56:03;4.80;;;1.60;;
35084;SDS011;21267;51.032;6.998;2023-06-26T14:58:32;3.15;;;0.70;;
35084;SDS011;21267;51.032;6.998;2023-06-26T15:03:26;2.03;;;1.15;;
35084;SDS011;21267;51.032;6.998;2023-06-26T15:05:54;2.33;;;0.80;;
35084;SDS011;21267;51.032;6.998;2023-06-26T15:08:20;2.03;;;0.77;;
35084;SDS011;21267;51.032;6.998;2023-06-26T15:10:47;1.38;;;0.73;;
35084;SDS011;21267;51.032;6.998;2023-06-26T15:13:14;4.00;;;1.35;;
35084;SDS011;21267;51.032;6.998;2023-06-26T15:15:41;1.33;;;1.00;;
35084;SDS011;21267;51.032;6.998;2023-06-26T15:18:08;5.22;;;1.90;;
35084;SDS011;21267;51.032;6.998;2023-06-26T15:20:35;4.53;;;1.60;;
35084;SDS011;21267;51.032;6.998;2023-06-26T15:25:29;3.65;;;1.75;;
35084;SDS011;21267;51.032;6.998;2023-06-26T15:28:01;3.95;;;1.25;;
35084;SDS011;21267;51.032;6.998;2023-06-26T15:30:29;3.60;;;1.30;;
35084;SDS011;21267;51.032;6.998;2023-06-26T15:32:56;3.58;;;1.30;;
35084;SDS011;21267;51.032;6.998;2023-06-26T15:35:26;4.30;;;1.23;;
35084;SDS011;21267;51.032;6.998;2023-06-26T15:38:07;3.58;;;1.48;;
35084;SDS011;21267;51.032;6.998;2023-06-26T15:40:34;5.75;;;1.30;;
35084;SDS011;21267;51.032;6.998;2023-06-26T15:43:05;4.50;;;1.33;;
35084;SDS011;21267;51.032;6.998;2023-06-26T15:45:32;7.45;;;2.15;;
35084;SDS011;21267;51.032;6.998;2023-06-26T15:48:02;5.03;;;1.70;;
35084;SDS011;21267;51.032;6.998;2023-06-26T15:50:30;3.35;;;1.27;;
35084;SDS011;21267;51.032;6.998;2023-06-26T15:52:57;3.15;;;1.63;;
35084;SDS011;21267;51.032;6.998;2023-06-26T15:55:24;2.92;;;1.60;;
35084;SDS011;21267;51.032;6.998;2023-06-26T16:00:18;7.13;;;1.60;;
35084;SDS011;21267;51.032;6.998;2023-06-26T16:02:47;2.58;;;0.95;;